Time;durP1;ratioP1;P1;durP2;ratioP2;P2;SDS_P1;SDS_P2;PMS_P1;PMS_P2;Temp;Humidity;BMP_temperature;BMP_pressure;BME280_temperature;BME280_humidity;BME280_pressure;Samples;Min_cycle;Max_cycle;Signal;HPM_P1;HPM_P2
2022/11/07 00:00:18;;;;;;;;;;;;;;;21.31;45.18;95346.38;6123805;19;1931;-71
2022/11/07 00:02:21;;;;;;;;;;;;;;;21.29;44.46;95354.63;6122023;19;2089;-70
2022/11/07 00:04:29;;;;;;;;;;;;;;;21.28;44.64;95350.28;6121356;19;1157;-71
2022/11/07 00:06:36;;;;;;;;;;;;;;;21.27;44.42;95356.66;6125843;19;1898;-70
2022/11/07 00:08:39;;;;;;;;;;;;;;;21.28;44.84;95360.16;6102237;19;2029;-71
2022/11/07 00:10:43;;;;;;;;;;;;;;;21.27;44.78;95353.16;6123051;19;2016;-70
2022/11/07 00:12:46;;;;;;;;;;;;;;;21.27;45.07;95362.00;6125354;19;2680;-71
2022/11/07 00:14:49;;;;;;;;;;;;;;;21.27;44.78;95369.22;6123866;19;2243;-71
2022/11/07 00:16:53;;;;;;;;;;;;;;;21.28;44.78;95360.16;6122209;19;1529;-71
2022/11/07 00:18:56;;;;;;;;;;;;;;;21.27;44.90;95366.53;6119910;19;2090;-70
2022/11/07 00:21:05;;;;;;;;;;;;;;;21.27;44.59;95366.53;6107842;19;2114;-70
2022/11/07 00:23:08;;;;;;;;;;;;;;;21.27;44.37;95366.53;6123919;19;1819;-70
2022/11/07 00:25:12;;;;;;;;;;;;;;;21.25;44.47;95361.38;6121992;19;1048;-71
2022/11/07 00:27:15;;;;;;;;;;;;;;;21.25;44.56;95372.06;6122742;19;2100;-70
2022/11/07 00:29:20;;;;;;;;;;;;;;;21.26;44.53;95370.25;6123866;19;1877;-70
2022/11/07 00:31:24;;;;;;;;;;;;;;;21.24;44.22;95367.78;6099999;19;1561;-71
2022/11/07 00:33:27;;;;;;;;;;;;;;;21.23;44.73;95361.59;6124008;19;1924;-70
2022/11/07 00:35:30;;;;;;;;;;;;;;;21.23;44.81;95361.59;6122412;19;2123;-71
2022/11/07 00:37:36;;;;;;;;;;;;;;;21.23;44.61;95364.28;6122793;19;2088;-70
2022/11/07 00:39:39;;;;;;;;;;;;;;;21.23;44.59;95358.13;6121434;19;1028;-70
2022/11/07 00:41:43;;;;;;;;;;;;;;;21.22;44.76;95359.13;6121083;19;2086;-71
2022/11/07 00:43:46;;;;;;;;;;;;;;;21.22;44.64;95359.94;6099875;19;2088;-70
2022/11/07 00:45:50;;;;;;;;;;;;;;;21.21;44.97;95360.16;6121041;19;1954;-70
2022/11/07 00:47:53;;;;;;;;;;;;;;;21.23;44.85;95355.44;6121477;19;2124;-70
2022/11/07 00:49:56;;;;;;;;;;;;;;;21.20;44.65;95354.00;6121313;19;1453;-71
2022/11/07 00:52:00;;;;;;;;;;;;;;;21.23;44.61;95361.59;6123577;19;1905;-71
2022/11/07 00:54:06;;;;;;;;;;;;;;;21.21;44.16;95352.97;6110289;19;1913;-71
2022/11/07 00:56:11;;;;;;;;;;;;;;;21.20;44.29;95354.00;6110567;19;2112;-71
2022/11/07 00:58:14;;;;;;;;;;;;;;;21.21;44.77;95349.47;6122108;19;1923;-71
2022/11/07 01:00:17;;;;;;;;;;;;;;;21.20;44.57;95351.34;6119644;19;1942;-70
2022/11/07 01:02:21;;;;;;;;;;;;;;;21.20;44.92;95351.34;6121065;19;1640;-70
2022/11/07 01:06:42;;;;;;;;;;;;;;;21.20;45.21;95350.50;6100508;19;1371;-71
2022/11/07 01:08:46;;;;;;;;;;;;;;;21.21;45.40;95352.97;6124237;19;2132;-71
2022/11/07 01:10:52;;;;;;;;;;;;;;;21.20;45.44;95356.69;6120871;19;2100;-71
2022/11/07 01:12:55;;;;;;;;;;;;;;;21.21;45.44;95352.16;6121765;19;1995;-72
2022/11/07 01:14:59;;;;;;;;;;;;;;;21.21;44.93;95352.97;6122215;19;2139;-71
2022/11/07 01:17:02;;;;;;;;;;;;;;;21.21;45.46;95352.97;6110061;19;2150;-70
2022/11/07 01:19:06;;;;;;;;;;;;;;;21.21;45.32;95347.63;6113418;19;1831;-71
2022/11/07 01:21:10;;;;;;;;;;;;;;;21.20;44.93;95343.31;6122225;19;1904;-72
2022/11/07 01:23:13;;;;;;;;;;;;;;;21.19;44.94;95343.50;6121649;19;1916;-71
2022/11/07 01:25:16;;;;;;;;;;;;;;;21.18;45.21;95340.03;6120172;19;1772;-71
2022/11/07 01:27:22;;;;;;;;;;;;;;;21.19;45.31;95338.97;6120603;19;1893;-71
2022/11/07 01:29:26;;;;;;;;;;;;;;;21.19;44.91;95330.16;6099305;19;1871;-71
2022/11/07 01:31:30;;;;;;;;;;;;;;;21.19;45.13;95330.16;6119730;19;1057;-70
2022/11/07 01:33:33;;;;;;;;;;;;;;;21.20;45.04;95337.16;6121149;19;2089;-69
2022/11/07 01:35:37;;;;;;;;;;;;;;;21.19;45.02;95327.47;6120652;19;2127;-70
2022/11/07 01:37:40;;;;;;;;;;;;;;;21.19;45.30;95317.59;6121715;19;1910;-70
2022/11/07 01:39:43;;;;;;;;;;;;;;;21.18;45.06;95325.84;6108712;19;1176;-70
2022/11/07 01:41:46;;;;;;;;;;;;;;;21.18;45.43;95325.84;6109573;19;1132;-70
2022/11/07 01:43:53;;;;;;;;;;;;;;;21.18;45.41;95328.50;6123060;19;1918;-70
2022/11/07 01:45:57;;;;;;;;;;;;;;;21.18;45.44;95326.66;6121150;19;2066;-71
2022/11/07 01:48:02;;;;;;;;;;;;;;;21.18;45.23;95326.66;6120480;19;2096;-71
2022/11/07 01:50:07;;;;;;;;;;;;;;;21.17;45.17;95327.69;6122169;19;1829;-71
2022/11/07 01:52:13;;;;;;;;;;;;;;;21.17;45.35;95327.69;6096826;19;1928;-71
2022/11/07 01:54:18;;;;;;;;;;;;;;;21.18;45.43;95321.31;6119352;19;1934;-71
2022/11/07 01:56:23;;;;;;;;;;;;;;;21.18;45.60;95320.50;6118442;19;1963;-71
2022/11/07 01:58:27;;;;;;;;;;;;;;;21.17;45.68;95317.00;6120107;19;1920;-71
2022/11/07 02:00:33;;;;;;;;;;;;;;;21.17;45.35;95324.16;6118094;19;2138;-71
2022/11/07 02:02:36;;;;;;;;;;;;;;;21.16;45.17;95326.00;6108359;19;1911;-70
2022/11/07 02:04:40;;;;;;;;;;;;;;;21.17;45.31;95325.03;6109926;19;1542;-70
2022/11/07 02:06:45;;;;;;;;;;;;;;;21.17;46.15;95314.34;6122057;19;2038;-71
2022/11/07 02:08:49;;;;;;;;;;;;;;;21.16;45.84;95323.34;6121556;19;2087;-68
2022/11/07 02:10:52;;;;;;;;;;;;;;;21.16;45.57;95318.00;6119101;19;1926;-69
2022/11/07 02:12:57;;;;;;;;;;;;;;;21.17;45.82;95326.81;6118463;19;2152;-69
2022/11/07 02:15:00;;;;;;;;;;;;;;;21.15;45.65;95327.03;6097326;19;1870;-69
2022/11/07 02:17:07;;;;;;;;;;;;;;;21.16;45.77;95327.88;6121013;19;1842;-69
2022/11/07 02:19:12;;;;;;;;;;;;;;;21.15;46.00;95331.56;6122040;19;1919;-69
2022/11/07 02:21:20;;;;;;;;;;;;;;;21.15;45.88;95342.25;6121195;19;2185;-69
2022/11/07 02:23:26;;;;;;;;;;;;;;;21.15;45.74;95332.38;6119997;19;2017;-69
2022/11/07 02:25:32;;;;;;;;;;;;;;;21.15;46.01;95337.72;6098430;19;1908;-68
2022/11/07 02:27:36;;;;;;;;;;;;;;;21.14;45.61;95336.09;6120747;19;2937;-65
2022/11/07 02:29:41;;;;;;;;;;;;;;;21.17;46.20;95318.81;6120361;19;2082;-68
2022/11/07 02:31:44;;;;;;;;;;;;;;;21.18;45.51;95337.34;6120904;19;1662;-68
2022/11/07 02:33:48;;;;;;;;;;;;;;;21.19;45.80;95338.97;6120129;19;2002;-68
2022/11/07 02:35:51;;;;;;;;;;;;;;;21.17;46.00;95341.06;6119134;19;2021;-69
2022/11/07 02:37:55;;;;;;;;;;;;;;;21.18;46.07;95337.34;6101559;19;1940;-68
2022/11/07 02:39:59;;;;;;;;;;;;;;;21.16;45.79;95334.03;6118095;19;1838;-68
2022/11/07 02:42:05;;;;;;;;;;;;;;;21.16;45.96;95342.03;6117955;19;1119;-68
2022/11/07 02:44:11;;;;;;;;;;;;;;;21.14;46.45;95335.25;6117606;19;1069;-68
2022/11/07 02:46:15;;;;;;;;;;;;;;;21.14;46.36;95328.09;6119951;19;1858;-68
2022/11/07 02:48:19;;;;;;;;;;;;;;;21.13;46.35;95338.97;6096355;19;1831;-68
2022/11/07 02:50:23;;;;;;;;;;;;;;;21.16;46.09;95335.88;6119210;19;1831;-67
2022/11/07 02:52:26;;;;;;;;;;;;;;;21.04;46.69;95333.00;6119379;19;1880;-67
2022/11/07 02:54:29;;;;;;;;;;;;;;;21.10;46.16;95334.84;6117625;19;2223;-67
2022/11/07 02:56:32;;;;;;;;;;;;;;;21.16;46.07;95339.38;6119323;19;2021;-67
2022/11/07 02:58:38;;;;;;;;;;;;;;;21.16;46.47;95342.03;6115494;19;2083;-68
2022/11/07 03:00:42;;;;;;;;;;;;;;;21.17;46.41;95340.19;6106305;19;2036;-70
2022/11/07 03:02:46;;;;;;;;;;;;;;;21.17;46.53;95348.19;6118143;19;2081;-69
2022/11/07 03:04:49;;;;;;;;;;;;;;;21.16;46.37;95342.03;6119749;19;2107;-68
2022/11/07 03:06:53;;;;;;;;;;;;;;;21.19;46.06;95346.19;6119740;19;1943;-68
2022/11/07 03:08:56;;;;;;;;;;;;;;;21.17;46.05;95341.06;6121020;19;1907;-67
2022/11/07 03:10:59;;;;;;;;;;;;;;;21.15;46.50;95345.75;6097895;19;2190;-67
2022/11/07 03:13:03;;;;;;;;;;;;;;;21.14;46.50;95344.13;6119147;19;1932;-67
2022/11/07 03:15:11;;;;;;;;;;;;;;;21.13;46.35;95346.97;6119242;19;1908;-67
2022/11/07 03:17:14;;;;;;;;;;;;;;;21.13;46.63;95344.31;6115302;19;1850;-67
2022/11/07 03:19:17;;;;;;;;;;;;;;;21.11;46.67;95349.84;6114973;19;1610;-68
2022/11/07 03:21:21;;;;;;;;;;;;;;;21.11;46.61;95343.69;6122386;19;1922;-67
2022/11/07 03:23:24;;;;;;;;;;;;;;;21.11;46.36;95347.19;6102240;19;1925;-68
2022/11/07 03:25:27;;;;;;;;;;;;;;;21.11;46.25;95341.84;6125469;19;2088;-67
2022/11/07 03:27:31;;;;;;;;;;;;;;;21.10;46.39;95340.19;6126768;19;1871;-68
2022/11/07 03:29:34;;;;;;;;;;;;;;;21.09;46.42;95346.59;6124689;19;1640;-68
2022/11/07 03:31:40;;;;;;;;;;;;;;;21.10;46.50;95342.88;6122761;19;1532;-68
2022/11/07 03:33:43;;;;;;;;;;;;;;;21.10;46.28;95344.72;6109595;19;1935;-68
2022/11/07 03:35:47;;;;;;;;;;;;;;;21.10;46.63;95350.06;6119329;19;2079;-67
2022/11/07 03:37:51;;;;;;;;;;;;;;;21.09;46.74;95349.25;6124828;19;1916;-67
2022/11/07 03:39:54;;;;;;;;;;;;;;;21.10;46.43;95348.22;6124657;19;2171;-67
2022/11/07 03:41:57;;;;;;;;;;;;;;;21.09;45.79;95357.28;6124817;19;1905;-68
2022/11/07 03:44:01;;;;;;;;;;;;;;;21.10;46.25;95369.59;6126053;19;1864;-67
2022/11/07 03:46:04;;;;;;;;;;;;;;;21.10;46.36;95360.75;6097412;19;1533;-68
2022/11/07 03:48:10;;;;;;;;;;;;;;;21.10;46.31;95363.44;6125008;19;1875;-68
2022/11/07 03:50:15;;;;;;;;;;;;;;;21.10;46.42;95366.09;6126385;19;1901;-68
2022/11/07 03:52:18;;;;;;;;;;;;;;;21.10;46.19;95371.44;6124038;19;1813;-68
2022/11/07 03:54:22;;;;;;;;;;;;;;;21.10;46.54;95377.59;6120594;19;1870;-67
2022/11/07 03:56:25;;;;;;;;;;;;;;;21.10;46.22;95382.13;6111596;19;1903;-67
2022/11/07 03:58:28;;;;;;;;;;;;;;;21.09;46.55;95378.66;6112068;19;2129;-67
2022/11/07 04:00:32;;;;;;;;;;;;;;;21.09;46.68;95380.50;6121560;19;1813;-68
2022/11/07 04:02:35;;;;;;;;;;;;;;;21.10;46.40;95382.13;6123196;19;1910;-68
2022/11/07 04:04:41;;;;;;;;;;;;;;;21.12;46.27;95377.41;6122378;19;1029;-67
2022/11/07 04:06:45;;;;;;;;;;;;;;;21.10;46.25;95382.94;6122436;19;1052;-67
2022/11/07 04:08:48;;;;;;;;;;;;;;;20.88;43.43;95390.34;6102209;19;2407;-67
2022/11/07 04:10:51;;;;;;;;;;;;;;;20.51;42.08;95397.88;6122361;19;1041;-67
2022/11/07 04:17:27;;;;;;;;;;;;;;;20.16;41.71;95407.78;6120943;19;1958;-67
2022/11/07 04:19:30;;;;;;;;;;;;;;;20.11;41.55;95407.56;6111660;19;1522;-67
2022/11/07 04:21:36;;;;;;;;;;;;;;;20.07;41.31;95403.66;6111246;19;2098;-68
2022/11/07 04:23:39;;;;;;;;;;;;;;;20.04;41.00;95410.22;6122332;19;1930;-67
2022/11/07 04:27:58;;;;;;;;;;;;;;;19.96;41.09;95417.56;6122787;19;2151;-68
2022/11/07 04:30:17;;;;;;;;;;;;;;;19.93;41.22;95412.63;6124240;19;2027;-67
2022/11/07 04:32:20;;;;;;;;;;;;;;;19.89;40.89;95410.34;6098419;19;1963;-67
2022/11/07 04:34:24;;;;;;;;;;;;;;;19.88;40.77;95408.69;6122078;19;1719;-68
2022/11/07 04:36:27;;;;;;;;;;;;;;;19.87;40.90;95401.72;6119008;19;1864;-68
2022/11/07 04:38:33;;;;;;;;;;;;;;;19.87;41.07;95404.38;6122082;19;1840;-67
2022/11/07 04:40:36;;;;;;;;;;;;;;;19.84;41.08;95404.78;6122414;19;1515;-70
2022/11/07 04:42:40;;;;;;;;;;;;;;;19.81;41.10;95399.84;6108214;19;1256;-69
2022/11/07 04:44:43;;;;;;;;;;;;;;;19.79;40.76;95407.22;6116400;19;1155;-68
2022/11/07 04:46:47;;;;;;;;;;;;;;;19.79;41.04;95411.72;6120775;19;1410;-67
2022/11/07 04:48:50;;;;;;;;;;;;;;;19.75;40.99;95408.63;6123827;19;2254;-70
2022/11/07 04:50:53;;;;;;;;;;;;;;;19.76;41.05;95407.63;6122592;19;2129;-71
2022/11/07 04:52:56;;;;;;;;;;;;;;;19.74;40.82;95406.97;6120386;19;1129;-66
2022/11/07 04:55:02;;;;;;;;;;;;;;;19.72;40.93;95411.69;6099534;19;1735;-67
2022/11/07 04:57:06;;;;;;;;;;;;;;;19.71;40.97;95409.22;6118302;19;1988;-67
2022/11/07 04:59:09;;;;;;;;;;;;;;;19.67;41.05;95414.13;6124314;19;1836;-68
2022/11/07 05:01:13;;;;;;;;;;;;;;;19.64;40.78;95410.00;6112623;19;1787;-72
2022/11/07 05:03:16;;;;;;;;;;;;;;;19.79;40.92;95417.88;6117336;19;2053;-68
2022/11/07 05:05:20;;;;;;;;;;;;;;;19.80;40.82;95408.84;6110018;19;1148;-68
2022/11/07 05:07:23;;;;;;;;;;;;;;;19.83;41.09;95418.31;6109245;19;1298;-66
2022/11/07 05:09:26;;;;;;;;;;;;;;;19.85;40.92;95417.09;6122197;19;1836;-68
2022/11/07 05:11:32;;;;;;;;;;;;;;;19.79;40.92;95411.72;6120889;19;1060;-66
2022/11/07 05:13:36;;;;;;;;;;;;;;;19.62;40.80;95422.69;6119429;19;2050;-66
2022/11/07 05:15:39;;;;;;;;;;;;;;;19.48;41.25;95420.94;6123064;19;2136;-67
2022/11/07 05:17:42;;;;;;;;;;;;;;;19.47;40.90;95424.63;6095899;19;1849;-67
2022/11/07 05:19:46;;;;;;;;;;;;;;;19.44;40.76;95428.50;6121058;19;2119;-66
2022/11/07 05:23:10;;;;;;;;;;;;;;;19.40;40.68;95424.56;6120616;19;2460;-66
2022/11/07 05:24:10;;;;;;;;;;;;;;;19.32;40.56;95426.56;6117595;19;1340;-72
2022/11/07 05:26:14;;;;;;;;;;;;;;;19.31;40.68;95432.91;6115554;19;1387;-68
2022/11/07 05:28:21;;;;;;;;;;;;;;;19.31;40.91;95432.91;6109621;19;1204;-67
2022/11/07 05:30:24;;;;;;;;;;;;;;;19.31;40.73;95435.56;6109026;19;1489;-67
2022/11/07 05:32:27;;;;;;;;;;;;;;;19.30;40.65;95445.41;6119539;19;1053;-68
2022/11/07 05:34:31;;;;;;;;;;;;;;;19.31;40.96;95430.25;6120276;19;1305;-66
2022/11/07 05:36:34;;;;;;;;;;;;;;;19.41;41.01;95450.22;6117307;19;1849;-68
2022/11/07 05:38:37;;;;;;;;;;;;;;;19.56;40.77;95444.00;6116388;19;1491;-68
2022/11/07 05:40:41;;;;;;;;;;;;;;;19.68;41.11;95442.44;6093813;19;1272;-68
2022/11/07 05:42:44;;;;;;;;;;;;;;;19.81;40.83;95447.84;6115831;19;1058;-67
2022/11/07 05:44:51;;;;;;;;;;;;;;;19.89;41.03;95450.34;6114058;19;1388;-67
2022/11/07 05:46:54;;;;;;;;;;;;;;;19.93;41.21;95452.63;6116088;19;1025;-66
2022/11/07 05:48:57;;;;;;;;;;;;;;;19.99;40.98;95465.19;6116303;19;1121;-66
2022/11/07 05:51:01;;;;;;;;;;;;;;;20.01;41.21;95460.47;6104922;19;1509;-66
2022/11/07 05:53:05;;;;;;;;;;;;;;;20.02;41.23;95465.59;6107192;19;1295;-66
2022/11/07 05:55:09;;;;;;;;;;;;;;;20.05;41.04;95464.38;6118144;19;1418;-65
2022/11/07 05:57:12;;;;;;;;;;;;;;;20.05;41.38;95467.06;6118387;19;1849;-66
2022/11/07 05:59:15;;;;;;;;;;;;;;;20.09;41.16;95471.00;6119041;19;1302;-69
2022/11/07 06:01:21;;;;;;;;;;;;;;;20.10;41.27;95461.94;6118823;19;1030;-67
2022/11/07 06:03:25;;;;;;;;;;;;;;;20.11;41.19;95474.25;6096582;19;1503;-66
2022/11/07 06:05:28;;;;;;;;;;;;;;;20.13;41.39;95469.56;6119269;19;1040;-66
2022/11/07 06:07:35;;;;;;;;;;;;;;;20.14;41.22;95473.88;6118026;19;1357;-66
2022/11/07 06:09:38;;;;;;;;;;;;;;;20.15;41.23;95475.53;6117339;19;1034;-67
2022/11/07 06:11:42;;;;;;;;;;;;;;;20.17;41.34;95480.66;6119478;19;1617;-67
2022/11/07 06:13:45;;;;;;;;;;;;;;;20.17;41.46;95481.47;6105695;19;1461;-66
2022/11/07 06:15:49;;;;;;;;;;;;;;;20.18;41.56;95485.81;6106177;19;1333;-67
2022/11/07 06:17:54;;;;;;;;;;;;;;;20.19;41.49;95487.44;6117695;19;1841;-66
2022/11/07 06:19:58;;;;;;;;;;;;;;;20.19;41.33;95492.78;6118658;19;1053;-66
2022/11/07 06:22:01;;;;;;;;;;;;;;;20.20;41.57;95494.41;6117883;19;1061;-66
2022/11/07 06:24:05;;;;;;;;;;;;;;;20.21;41.75;95496.09;6118948;19;1048;-67
2022/11/07 06:26:08;;;;;;;;;;;;;;;20.22;41.38;95499.56;6095748;19;1284;-66
2022/11/07 06:28:15;;;;;;;;;;;;;;;20.22;41.56;95497.72;6118033;19;1147;-66
2022/11/07 06:30:19;;;;;;;;;;;;;;;20.22;41.82;95496.91;6117512;19;1128;-66
2022/11/07 06:32:22;;;;;;;;;;;;;;;20.23;41.49;95493.19;6118019;19;1057;-67
2022/11/07 06:34:28;;;;;;;;;;;;;;;20.24;41.69;95501.03;6118540;19;1540;-68
2022/11/07 06:36:31;;;;;;;;;;;;;;;20.26;42.15;95500.81;6106480;19;1656;-68
2022/11/07 06:38:35;;;;;;;;;;;;;;;20.28;42.01;95502.25;6108121;19;1846;-64
2022/11/07 06:40:38;;;;;;;;;;;;;;;20.29;41.96;95508.44;6118011;19;1018;-62
2022/11/07 06:42:42;;;;;;;;;;;;;;;20.29;41.90;95501.25;6117289;19;1100;-64
2022/11/07 06:44:45;;;;;;;;;;;;;;;20.30;41.93;95508.22;6117763;19;1033;-64
2022/11/07 06:46:48;;;;;;;;;;;;;;;20.30;42.24;95502.91;6118075;19;1013;-65
2022/11/07 06:48:53;;;;;;;;;;;;;;;20.32;41.89;95514.19;6095335;19;1280;-64
2022/11/07 06:51:01;;;;;;;;;;;;;;;20.32;42.07;95513.38;6118269;19;974;-66
2022/11/07 06:53:04;;;;;;;;;;;;;;;20.34;42.36;95514.00;6117364;19;1057;-63
2022/11/07 06:55:08;;;;;;;;;;;;;;;20.35;42.67;95513.00;6117748;19;1014;-64
2022/11/07 06:57:11;;;;;;;;;;;;;;;20.37;42.87;95523.47;6121425;19;1859;-64
2022/11/07 06:59:14;;;;;;;;;;;;;;;20.38;42.84;95517.13;6111202;19;1340;-64
2022/11/07 07:01:18;;;;;;;;;;;;;;;20.39;43.20;95521.44;6116395;19;1777;-64
2022/11/07 07:03:21;;;;;;;;;;;;;;;20.39;42.90;95516.94;6123931;19;914;-62
2022/11/07 07:05:24;;;;;;;;;;;;;;;20.40;43.07;95523.91;6123627;19;1124;-66
2022/11/07 07:07:30;;;;;;;;;;;;;;;20.41;43.14;95522.91;6123101;19;1069;-66
2022/11/07 07:09:34;;;;;;;;;;;;;;;20.41;43.17;95519.41;6123888;19;1113;-66
2022/11/07 07:11:38;;;;;;;;;;;;;;;20.42;43.52;95521.03;6101766;19;1254;-67
2022/11/07 07:13:42;;;;;;;;;;;;;;;20.41;43.16;95514.88;6123203;19;1132;-67
2022/11/07 07:15:53;;;;;;;;;;;;;;;20.42;43.61;95524.53;6123905;19;1102;-67
2022/11/07 07:18:00;;;;;;;;;;;;;;;20.44;43.66;95527.03;6122477;19;1846;-67
2022/11/07 07:20:03;;;;;;;;;;;;;;;20.45;43.68;95528.66;6123522;19;1157;-65
2022/11/07 07:22:07;;;;;;;;;;;;;;;20.45;43.76;95534.81;6102180;19;1539;-69
2022/11/07 07:24:13;;;;;;;;;;;;;;;20.45;43.71;95532.16;6122852;19;985;-67
2022/11/07 07:26:17;;;;;;;;;;;;;;;20.45;43.69;95528.66;6123678;19;958;-65
2022/11/07 07:28:20;;;;;;;;;;;;;;;20.45;43.88;95534.81;6122730;19;1014;-65
2022/11/07 07:30:23;;;;;;;;;;;;;;;20.45;44.11;95531.31;6122740;19;1057;-63
2022/11/07 07:32:27;;;;;;;;;;;;;;;20.46;44.22;95530.28;6123483;19;1025;-63
2022/11/07 07:34:30;;;;;;;;;;;;;;;20.47;44.35;95531.97;6100559;19;1325;-63
2022/11/07 07:36:34;;;;;;;;;;;;;;;20.46;44.46;95525.81;6122646;19;985;-64
2022/11/07 07:38:37;;;;;;;;;;;;;;;20.47;44.43;95537.31;6121403;19;1860;-63
2022/11/07 07:40:43;;;;;;;;;;;;;;;20.47;44.37;95542.63;6122795;19;1041;-64
2022/11/07 07:42:47;;;;;;;;;;;;;;;20.47;44.13;95542.63;6121978;19;1100;-65
2022/11/07 07:44:50;;;;;;;;;;;;;;;20.47;44.49;95539.97;6099916;19;1492;-67
2022/11/07 07:46:53;;;;;;;;;;;;;;;20.47;44.46;95537.31;6122795;19;1061;-65
2022/11/07 07:48:57;;;;;;;;;;;;;;;20.49;44.27;95535.25;6122790;19;1073;-66
2022/11/07 07:51:00;;;;;;;;;;;;;;;20.49;44.18;95537.94;6121842;19;1049;-64
2022/11/07 07:53:04;;;;;;;;;;;;;;;20.49;44.60;95540.59;6123053;19;1043;-64
2022/11/07 07:55:08;;;;;;;;;;;;;;;20.49;44.10;95529.94;6122873;19;958;-66
2022/11/07 07:57:14;;;;;;;;;;;;;;;20.49;44.29;95530.75;6099872;19;1358;-64
2022/11/07 07:59:18;;;;;;;;;;;;;;;20.50;44.73;95534.22;6119379;19;1857;-64
2022/11/07 08:01:21;;;;;;;;;;;;;;;20.50;45.04;95535.06;6121881;19;1060;-64
2022/11/07 08:03:25;;;;;;;;;;;;;;;20.50;44.80;95536.91;6122174;19;1143;-65
2022/11/07 08:05:28;;;;;;;;;;;;;;;20.51;44.94;95533.19;6121440;19;915;-65
2022/11/07 08:07:32;;;;;;;;;;;;;;;20.52;44.75;95545.53;6101321;19;1211;-65
2022/11/07 08:09:35;;;;;;;;;;;;;;;20.51;44.93;95546.53;6121958;19;1171;-65
2022/11/07 08:11:39;;;;;;;;;;;;;;;20.51;44.66;95549.22;6122078;19;1136;-65
2022/11/07 08:13:45;;;;;;;;;;;;;;;20.51;44.87;95541.22;6121736;19;1020;-64
2022/11/07 08:15:48;;;;;;;;;;;;;;;20.50;44.61;95537.72;6121534;19;1135;-64
2022/11/07 08:17:51;;;;;;;;;;;;;;;20.51;44.49;95530.53;6121549;19;1841;-66
2022/11/07 08:19:55;;;;;;;;;;;;;;;20.52;44.77;95532.19;6098160;19;1419;-68
2022/11/07 08:21:58;;;;;;;;;;;;;;;20.53;44.67;95536.50;6122059;19;1017;-63
2022/11/07 08:24:02;;;;;;;;;;;;;;;20.54;44.71;95538.13;6119671;19;1607;-63
2022/11/07 08:26:05;;;;;;;;;;;;;;;20.54;44.90;95538.13;6119587;19;1438;-63
2022/11/07 08:28:09;;;;;;;;;;;;;;;20.54;44.76;95538.13;6120817;19;1124;-63
2022/11/07 08:30:16;;;;;;;;;;;;;;;20.54;45.08;95539.00;6104494;19;1140;-64
2022/11/07 08:32:20;;;;;;;;;;;;;;;20.54;44.84;95544.31;6121062;19;1324;-62
2022/11/07 08:34:23;;;;;;;;;;;;;;;20.54;44.93;95540.81;6121461;19;1054;-63
2022/11/07 08:36:26;;;;;;;;;;;;;;;20.54;45.08;95549.66;6120976;19;1034;-63
2022/11/07 08:38:30;;;;;;;;;;;;;;;20.54;44.77;95543.47;6120640;19;1849;-62
2022/11/07 08:40:34;;;;;;;;;;;;;;;20.55;44.98;95545.16;6121388;19;1037;-64
2022/11/07 08:42:37;;;;;;;;;;;;;;;20.55;44.64;95542.47;6097187;19;1372;-64
2022/11/07 08:44:40;;;;;;;;;;;;;;;20.55;44.62;95542.47;6121103;19;1016;-65
2022/11/07 08:46:47;;;;;;;;;;;;;;;20.55;45.17;95550.47;6121473;19;961;-68
2022/11/07 08:48:50;;;;;;;;;;;;;;;20.55;45.16;95547.81;6121157;19;1058;-64
2022/11/07 08:50:54;;;;;;;;;;;;;;;20.57;45.00;95545.75;6119930;19;1112;-66
2022/11/07 08:52:58;;;;;;;;;;;;;;;20.56;44.93;95544.94;6102179;19;1294;-65
2022/11/07 08:55:01;;;;;;;;;;;;;;;20.56;44.70;95546.78;6120914;19;1070;-64
2022/11/07 08:57:04;;;;;;;;;;;;;;;20.56;44.87;95542.25;6120033;19;1132;-65
2022/11/07 08:59:08;;;;;;;;;;;;;;;20.57;44.91;95540.41;6119357;19;1866;-63
2022/11/07 09:01:12;;;;;;;;;;;;;;;20.58;45.15;95543.94;6120448;19;1026;-64
2022/11/07 09:03:18;;;;;;;;;;;;;;;20.57;44.85;95543.06;6121494;19;958;-67
2022/11/07 09:05:21;;;;;;;;;;;;;;;20.57;44.99;95537.75;6098699;19;1461;-65
2022/11/07 09:07:24;;;;;;;;;;;;;;;20.59;45.23;95541.03;6121135;19;970;-66
2022/11/07 09:09:27;;;;;;;;;;;;;;;20.60;44.84;95542.72;6120829;19;959;-66
2022/11/07 09:11:31;;;;;;;;;;;;;;;20.61;44.91;95539.00;6120077;19;1053;-65
2022/11/07 09:13:35;;;;;;;;;;;;;;;20.61;45.36;95552.34;6119766;19;1058;-64
2022/11/07 09:15:38;;;;;;;;;;;;;;;20.60;44.98;95544.53;6103979;19;1362;-70
2022/11/07 09:17:42;;;;;;;;;;;;;;;20.60;45.06;95548.06;6117256;19;1164;-66
2022/11/07 09:19:47;;;;;;;;;;;;;;;20.61;45.01;95549.69;6118286;19;1849;-65
2022/11/07 09:21:51;;;;;;;;;;;;;;;20.61;45.45;95547.03;6120336;19;1531;-64
2022/11/07 09:23:54;;;;;;;;;;;;;;;20.62;45.44;95545.16;6120165;19;1026;-67
2022/11/07 09:26:00;;;;;;;;;;;;;;;20.62;45.50;95543.31;6120293;19;1021;-67
2022/11/07 09:28:04;;;;;;;;;;;;;;;20.63;45.48;95544.13;6097807;19;1339;-66
2022/11/07 09:30:08;;;;;;;;;;;;;;;20.62;45.12;95535.31;6119838;19;1017;-67
2022/11/07 09:32:11;;;;;;;;;;;;;;;20.64;45.24;95549.28;6119952;19;1097;-65
2022/11/07 09:34:14;;;;;;;;;;;;;;;20.62;45.46;95535.31;6119116;19;1054;-70
2022/11/07 09:36:21;;;;;;;;;;;;;;;20.61;45.13;95531.00;6120035;19;974;-65
2022/11/07 09:38:24;;;;;;;;;;;;;;;20.63;45.41;95531.63;6101192;19;1845;-67
2022/11/07 09:40:32;;;;;;;;;;;;;;;20.62;45.05;95524.63;6119049;19;1525;-66
2022/11/07 16:25:14;;;;;;;;;;;;;;;20.54;46.26;95455.38;6110502;19;1805;-65
2022/11/07 16:27:18;;;;;;;;;;;;;;;20.54;46.67;95458.03;6099767;19;1761;-65
2022/11/07 16:29:22;;;;;;;;;;;;;;;20.53;46.72;95456.41;6121918;19;1940;-64
2022/11/07 16:31:25;;;;;;;;;;;;;;;20.53;46.77;95462.56;6120868;19;1986;-64
2022/11/07 16:33:29;;;;;;;;;;;;;;;20.54;46.30;95474.06;6121823;19;1021;-64
2022/11/07 16:35:32;;;;;;;;;;;;;;;20.53;46.59;95473.25;6123672;19;1670;-64
2022/11/07 16:37:36;;;;;;;;;;;;;;;20.54;46.77;95468.72;6100639;19;2247;-66
2022/11/07 16:39:39;;;;;;;;;;;;;;;20.33;45.06;95485.66;6119984;19;2022;-68
2022/11/07 16:41:45;;;;;;;;;;;;;;;20.13;43.15;95474.06;6123363;19;1889;-68
2022/11/07 16:43:48;;;;;;;;;;;;;;;19.98;42.93;95477.69;6123624;19;1846;-68
2022/11/07 16:45:52;;;;;;;;;;;;;;;19.91;42.73;95473.34;6120884;19;1814;-68
2022/11/07 16:47:56;;;;;;;;;;;;;;;19.85;42.84;95478.44;6120626;19;1972;-69
2022/11/07 16:49:59;;;;;;;;;;;;;;;19.75;42.20;95480.63;6097851;19;1718;-68
2022/11/07 16:52:03;;;;;;;;;;;;;;;19.72;42.35;95480.16;6123468;19;2088;-69
2022/11/07 16:54:07;;;;;;;;;;;;;;;19.71;42.19;95483.88;6121443;19;1873;-69
2022/11/07 16:56:16;;;;;;;;;;;;;;;19.64;42.15;95489.16;6119367;19;1784;-68
2022/11/07 16:58:26;;;;;;;;;;;;;;;19.62;42.23;95485.88;6122552;19;1906;-68
2022/11/07 17:00:30;;;;;;;;;;;;;;;19.62;41.97;95491.19;6096793;19;1905;-68
2022/11/07 17:02:33;;;;;;;;;;;;;;;19.57;41.55;95498.94;6123040;19;1887;-68
2022/11/07 17:04:37;;;;;;;;;;;;;;;19.54;41.76;95496.66;6122646;19;2118;-68
2022/11/07 17:06:45;;;;;;;;;;;;;;;19.50;41.44;95496.19;6122082;19;1916;-70
2022/11/07 17:08:48;;;;;;;;;;;;;;;19.47;41.62;95493.09;6121863;19;2094;-68
2022/11/07 17:10:52;;;;;;;;;;;;;;;19.45;41.71;95504.75;6115124;19;1826;-68
2022/11/07 17:12:55;;;;;;;;;;;;;;;19.42;41.17;95499.00;6109484;19;2056;-68
2022/11/07 17:15:01;;;;;;;;;;;;;;;19.38;41.44;95497.75;6120014;19;1889;-70
2022/11/07 17:17:06;;;;;;;;;;;;;;;19.34;41.42;95499.94;6123120;19;1836;-68
2022/11/07 17:19:09;;;;;;;;;;;;;;;19.32;41.31;95498.50;6121471;19;1874;-69
2022/11/07 17:21:21;;;;;;;;;;;;;;;19.30;41.44;95496.03;6122648;19;1918;-68
2022/11/07 17:23:25;;;;;;;;;;;;;;;19.27;41.12;95498.28;6098244;19;1923;-68
2022/11/07 17:25:28;;;;;;;;;;;;;;;19.27;41.08;95496.41;6118419;19;1052;-68
2022/11/07 17:27:31;;;;;;;;;;;;;;;19.30;41.39;95496.03;6123033;19;2117;-68
2022/11/07 17:29:35;;;;;;;;;;;;;;;19.29;41.16;95491.72;6120446;19;1875;-68
2022/11/07 17:31:41;;;;;;;;;;;;;;;19.26;40.94;95488.59;6120585;19;1763;-67
2022/11/07 17:33:44;;;;;;;;;;;;;;;19.22;41.04;95489.00;6109737;19;1218;-69
2022/11/07 17:35:48;;;;;;;;;;;;;;;19.21;40.98;95483.88;6108672;19;1771;-68
2022/11/07 17:37:51;;;;;;;;;;;;;;;19.20;40.98;95482.19;6118645;19;2032;-67
2022/11/07 17:39:55;;;;;;;;;;;;;;;19.39;41.26;95486.06;6118069;19;1838;-66
2022/11/07 17:41:58;;;;;;;;;;;;;;;19.52;41.73;95475.50;6122311;19;1860;-67
2022/11/07 17:44:02;;;;;;;;;;;;;;;19.62;41.65;95475.19;6122797;19;1749;-69
2022/11/07 17:46:06;;;;;;;;;;;;;;;19.67;41.84;95478.09;6094298;19;2087;-68